Strona główna
METAR-TAF:

METAR-TAF

Lotnisko :

Boscombe Down, Anglia

Szerokość geograficzna: 51-10N, Długość geograficzna: 001-45W, wysokość: 124 m

Aktualna obserwacja pogody

Raport powstał 39 minut temu, godzina 11:20 UTC
Wiatr 3 kt od południe
Temperatura 7°C
Wilgotność 93%
Ciśnienie 1000 hPa
Widzialność 10 km lub więcej
Mało chmury na wysokości 3000 ft
Przerywane chmury na wysokości 13000 ft

METAR: EGDM 161120Z 17003KT 9999 FEW030 BKN130 07/06 Q1000 NOSIG RMK BLU BLU

czas: 11:59 (11:59 UTC)

Prognoza

Raport powstał 1 godzina i 19 minut temu, godzina 10:40 UTC
Prognoza ważna od 16 godzina 12 UTC do 16 godzina 19 UTC
Wiatr 4 kt od południowo-południowy wschód
Widzialność 10 km lub więcej
Mało chmury na wysokości 3000 ft
Prawdopodobieństwo 30%
od 16 godzina 17 UTC do 16 godzina 19 UTC
Widzialność: 1500 m
Rozproszone chmury na wysokości 200 ft
zamglenie

TAF: EGDM 161040Z 1612/1619 15004KT 9999 FEW030 PROB30 1617/1619 1500 BR SCT002

Obserwacja i prognoza pogody dla ponad 4000 lotnisk (raport METAR i TAF).

Dostępne stacje oznaczono żółtymi i czerwonymi punktami na mapie.

Najedź kursorem aby zobaczyć nazwę stacji.

Kliknij aby zobaczyć obserwacje i prognozy pogody.

Aby zmienić mapę: kliknij na zielony przycisk z czarnym krzyżykiem, aby powiększyć; na zielony przycisk z myślnikiem, aby pomniejszyć; na zielone strzałki, aby przejść do map sąsiednich.


METAR-TAF: